sensor_id;sensor_type;location;lat;lon;timestamp;P1;durP1;ratioP1;P2;durP2;ratioP2
82985;SDS011;72786;53.546;9.910;2023-12-20T00:01:07;9.82;;;0.93;;
82985;SDS011;72786;53.546;9.910;2023-12-20T00:03:34;11.57;;;1.30;;
82985;SDS011;72786;53.546;9.910;2023-12-20T00:06:08;10.13;;;1.25;;
82985;SDS011;72786;53.546;9.910;2023-12-20T00:08:34;9.45;;;1.45;;
82985;SDS011;72786;53.546;9.910;2023-12-20T00:11:01;7.68;;;1.08;;
82985;SDS011;72786;53.546;9.910;2023-12-20T00:13:27;12.32;;;1.27;;
82985;SDS011;72786;53.546;9.910;2023-12-20T00:15:54;12.13;;;1.25;;
82985;SDS011;72786;53.546;9.910;2023-12-20T00:18:20;9.50;;;1.70;;
82985;SDS011;72786;53.546;9.910;2023-12-20T00:20:47;7.28;;;1.35;;
82985;SDS011;72786;53.546;9.910;2023-12-20T00:23:13;14.95;;;2.38;;
82985;SDS011;72786;53.546;9.910;2023-12-20T00:25:40;9.57;;;1.75;;
82985;SDS011;72786;53.546;9.910;2023-12-20T00:28:06;10.18;;;1.38;;
82985;SDS011;72786;53.546;9.910;2023-12-20T00:30:33;6.75;;;1.42;;
82985;SDS011;72786;53.546;9.910;2023-12-20T00:32:59;10.77;;;1.25;;
82985;SDS011;72786;53.546;9.910;2023-12-20T00:35:26;13.57;;;1.77;;
82985;SDS011;72786;53.546;9.910;2023-12-20T00:37:52;12.88;;;1.77;;
82985;SDS011;72786;53.546;9.910;2023-12-20T00:40:19;7.50;;;1.77;;
82985;SDS011;72786;53.546;9.910;2023-12-20T00:42:47;8.55;;;1.40;;
82985;SDS011;72786;53.546;9.910;2023-12-20T00:45:13;9.73;;;1.33;;
82985;SDS011;72786;53.546;9.910;2023-12-20T00:47:41;9.45;;;1.58;;
82985;SDS011;72786;53.546;9.910;2023-12-20T00:50:08;9.30;;;0.90;;
82985;SDS011;72786;53.546;9.910;2023-12-20T00:52:35;15.45;;;1.20;;
82985;SDS011;72786;53.546;9.910;2023-12-20T00:55:02;7.60;;;1.15;;
82985;SDS011;72786;53.546;9.910;2023-12-20T00:57:30;9.02;;;1.02;;
82985;SDS011;72786;53.546;9.910;2023-12-20T00:59:57;10.25;;;0.98;;
82985;SDS011;72786;53.546;9.910;2023-12-20T01:02:24;14.90;;;1.80;;
82985;SDS011;72786;53.546;9.910;2023-12-20T01:04:50;7.68;;;0.88;;
82985;SDS011;72786;53.546;9.910;2023-12-20T01:07:16;5.70;;;1.33;;
82985;SDS011;72786;53.546;9.910;2023-12-20T01:09:43;13.43;;;0.98;;
82985;SDS011;72786;53.546;9.910;2023-12-20T01:12:10;7.97;;;1.90;;
82985;SDS011;72786;53.546;9.910;2023-12-20T01:14:36;11.07;;;1.02;;
82985;SDS011;72786;53.546;9.910;2023-12-20T01:17:02;10.70;;;1.30;;
82985;SDS011;72786;53.546;9.910;2023-12-20T01:19:29;12.80;;;1.30;;
82985;SDS011;72786;53.546;9.910;2023-12-20T01:21:56;11.07;;;1.10;;
82985;SDS011;72786;53.546;9.910;2023-12-20T01:24:22;12.57;;;1.10;;
82985;SDS011;72786;53.546;9.910;2023-12-20T01:26:49;10.77;;;1.17;;
82985;SDS011;72786;53.546;9.910;2023-12-20T01:29:15;18.10;;;1.63;;
82985;SDS011;72786;53.546;9.910;2023-12-20T01:31:42;8.95;;;1.55;;
82985;SDS011;72786;53.546;9.910;2023-12-20T01:34:08;15.27;;;1.42;;
82985;SDS011;72786;53.546;9.910;2023-12-20T01:36:35;8.98;;;1.10;;
82985;SDS011;72786;53.546;9.910;2023-12-20T01:39:01;17.30;;;1.52;;
82985;SDS011;72786;53.546;9.910;2023-12-20T01:41:31;9.15;;;1.02;;
82985;SDS011;72786;53.546;9.910;2023-12-20T01:43:57;7.95;;;1.40;;
82985;SDS011;72786;53.546;9.910;2023-12-20T01:46:24;12.32;;;1.25;;
82985;SDS011;72786;53.546;9.910;2023-12-20T01:48:50;14.40;;;1.67;;
82985;SDS011;72786;53.546;9.910;2023-12-20T01:51:18;8.88;;;1.05;;
82985;SDS011;72786;53.546;9.910;2023-12-20T01:53:45;9.52;;;1.23;;
82985;SDS011;72786;53.546;9.910;2023-12-20T01:56:13;15.20;;;1.58;;
82985;SDS011;72786;53.546;9.910;2023-12-20T01:58:43;6.75;;;0.90;;
82985;SDS011;72786;53.546;9.910;2023-12-20T02:01:11;9.13;;;0.82;;
82985;SDS011;72786;53.546;9.910;2023-12-20T02:03:38;7.80;;;1.15;;
82985;SDS011;72786;53.546;9.910;2023-12-20T02:06:05;12.18;;;1.23;;
82985;SDS011;72786;53.546;9.910;2023-12-20T02:08:31;11.23;;;0.98;;
82985;SDS011;72786;53.546;9.910;2023-12-20T02:10:58;11.68;;;1.25;;
82985;SDS011;72786;53.546;9.910;2023-12-20T02:13:25;15.98;;;1.10;;
82985;SDS011;72786;53.546;9.910;2023-12-20T02:15:53;14.38;;;1.20;;
82985;SDS011;72786;53.546;9.910;2023-12-20T02:18:21;15.43;;;1.25;;
82985;SDS011;72786;53.546;9.910;2023-12-20T02:20:48;9.48;;;1.20;;
82985;SDS011;72786;53.546;9.910;2023-12-20T02:23:14;11.00;;;1.30;;
82985;SDS011;72786;53.546;9.910;2023-12-20T02:25:41;12.45;;;1.45;;
82985;SDS011;72786;53.546;9.910;2023-12-20T02:28:08;12.85;;;1.23;;
82985;SDS011;72786;53.546;9.910;2023-12-20T02:30:34;17.08;;;1.92;;
82985;SDS011;72786;53.546;9.910;2023-12-20T02:33:01;16.80;;;1.40;;
82985;SDS011;72786;53.546;9.910;2023-12-20T02:35:33;9.18;;;1.20;;
82985;SDS011;72786;53.546;9.910;2023-12-20T02:37:59;14.43;;;1.95;;
82985;SDS011;72786;53.546;9.910;2023-12-20T02:40:26;8.85;;;1.30;;
82985;SDS011;72786;53.546;9.910;2023-12-20T02:42:52;7.80;;;0.93;;
82985;SDS011;72786;53.546;9.910;2023-12-20T02:45:19;9.70;;;1.35;;
82985;SDS011;72786;53.546;9.910;2023-12-20T02:47:45;8.80;;;1.63;;
82985;SDS011;72786;53.546;9.910;2023-12-20T02:50:12;11.05;;;1.23;;
82985;SDS011;72786;53.546;9.910;2023-12-20T02:52:39;9.45;;;1.10;;
82985;SDS011;72786;53.546;9.910;2023-12-20T02:55:05;9.35;;;1.00;;
82985;SDS011;72786;53.546;9.910;2023-12-20T02:57:32;9.13;;;1.27;;
82985;SDS011;72786;53.546;9.910;2023-12-20T02:59:59;8.50;;;1.13;;
82985;SDS011;72786;53.546;9.910;2023-12-20T03:02:26;11.80;;;1.35;;
82985;SDS011;72786;53.546;9.910;2023-12-20T03:04:52;7.68;;;1.10;;
82985;SDS011;72786;53.546;9.910;2023-12-20T03:07:19;12.57;;;1.10;;
82985;SDS011;72786;53.546;9.910;2023-12-20T03:09:45;10.07;;;1.30;;
82985;SDS011;72786;53.546;9.910;2023-12-20T03:12:31;7.20;;;0.90;;
82985;SDS011;72786;53.546;9.910;2023-12-20T03:14:58;8.73;;;1.50;;
82985;SDS011;72786;53.546;9.910;2023-12-20T03:17:24;16.67;;;1.25;;
82985;SDS011;72786;53.546;9.910;2023-12-20T03:19:50;8.75;;;1.73;;
82985;SDS011;72786;53.546;9.910;2023-12-20T03:22:17;7.35;;;1.17;;
82985;SDS011;72786;53.546;9.910;2023-12-20T03:24:43;8.20;;;1.23;;
82985;SDS011;72786;53.546;9.910;2023-12-20T03:27:10;6.55;;;0.98;;
82985;SDS011;72786;53.546;9.910;2023-12-20T03:29:36;5.75;;;1.17;;
82985;SDS011;72786;53.546;9.910;2023-12-20T03:32:03;10.00;;;2.38;;
82985;SDS011;72786;53.546;9.910;2023-12-20T03:34:29;7.75;;;1.25;;
82985;SDS011;72786;53.546;9.910;2023-12-20T03:36:56;8.02;;;2.13;;
82985;SDS011;72786;53.546;9.910;2023-12-20T03:39:22;11.48;;;1.45;;
82985;SDS011;72786;53.546;9.910;2023-12-20T03:41:49;11.95;;;1.45;;
82985;SDS011;72786;53.546;9.910;2023-12-20T03:44:15;10.20;;;1.02;;
82985;SDS011;72786;53.546;9.910;2023-12-20T03:46:42;5.57;;;1.08;;
82985;SDS011;72786;53.546;9.910;2023-12-20T03:49:08;6.70;;;1.23;;
82985;SDS011;72786;53.546;9.910;2023-12-20T03:51:34;12.20;;;1.73;;
82985;SDS011;72786;53.546;9.910;2023-12-20T03:54:01;6.13;;;1.30;;
82985;SDS011;72786;53.546;9.910;2023-12-20T03:56:27;8.80;;;1.17;;
82985;SDS011;72786;53.546;9.910;2023-12-20T03:58:54;8.30;;;0.70;;
82985;SDS011;72786;53.546;9.910;2023-12-20T04:01:20;10.68;;;1.48;;
82985;SDS011;72786;53.546;9.910;2023-12-20T04:03:47;8.25;;;1.38;;
82985;SDS011;72786;53.546;9.910;2023-12-20T04:06:17;13.30;;;1.50;;
82985;SDS011;72786;53.546;9.910;2023-12-20T04:08:44;6.05;;;0.82;;
82985;SDS011;72786;53.546;9.910;2023-12-20T04:11:10;6.28;;;1.15;;
82985;SDS011;72786;53.546;9.910;2023-12-20T04:13:37;7.68;;;1.13;;
82985;SDS011;72786;53.546;9.910;2023-12-20T04:16:03;10.50;;;1.30;;
82985;SDS011;72786;53.546;9.910;2023-12-20T04:18:31;9.60;;;1.75;;
82985;SDS011;72786;53.546;9.910;2023-12-20T04:20:58;10.18;;;1.50;;
82985;SDS011;72786;53.546;9.910;2023-12-20T04:23:24;9.82;;;1.50;;
82985;SDS011;72786;53.546;9.910;2023-12-20T04:25:51;8.70;;;0.95;;
82985;SDS011;72786;53.546;9.910;2023-12-20T04:28:17;7.20;;;0.90;;
82985;SDS011;72786;53.546;9.910;2023-12-20T04:30:44;6.80;;;1.35;;
82985;SDS011;72786;53.546;9.910;2023-12-20T04:33:10;12.23;;;1.38;;
82985;SDS011;72786;53.546;9.910;2023-12-20T04:35:37;6.75;;;1.30;;
82985;SDS011;72786;53.546;9.910;2023-12-20T04:38:03;7.13;;;1.20;;
82985;SDS011;72786;53.546;9.910;2023-12-20T04:40:30;7.90;;;0.98;;
82985;SDS011;72786;53.546;9.910;2023-12-20T04:42:56;5.53;;;1.02;;
82985;SDS011;72786;53.546;9.910;2023-12-20T04:45:23;10.98;;;1.75;;
82985;SDS011;72786;53.546;9.910;2023-12-20T04:47:51;8.13;;;1.10;;
82985;SDS011;72786;53.546;9.910;2023-12-20T04:50:17;12.77;;;1.63;;
82985;SDS011;72786;53.546;9.910;2023-12-20T04:52:46;9.13;;;1.70;;
82985;SDS011;72786;53.546;9.910;2023-12-20T04:55:12;11.32;;;1.92;;
82985;SDS011;72786;53.546;9.910;2023-12-20T04:57:40;9.23;;;1.20;;
82985;SDS011;72786;53.546;9.910;2023-12-20T05:00:06;8.43;;;1.60;;
82985;SDS011;72786;53.546;9.910;2023-12-20T05:02:35;7.82;;;1.20;;
82985;SDS011;72786;53.546;9.910;2023-12-20T05:05:02;12.05;;;1.90;;
82985;SDS011;72786;53.546;9.910;2023-12-20T05:07:28;13.02;;;1.70;;
82985;SDS011;72786;53.546;9.910;2023-12-20T05:09:55;13.57;;;2.40;;
82985;SDS011;72786;53.546;9.910;2023-12-20T05:12:21;13.60;;;2.10;;
82985;SDS011;72786;53.546;9.910;2023-12-20T05:14:47;10.43;;;1.95;;
82985;SDS011;72786;53.546;9.910;2023-12-20T05:17:14;14.60;;;1.75;;
82985;SDS011;72786;53.546;9.910;2023-12-20T05:19:40;10.15;;;1.40;;
82985;SDS011;72786;53.546;9.910;2023-12-20T05:22:07;13.70;;;2.42;;
82985;SDS011;72786;53.546;9.910;2023-12-20T05:24:33;11.05;;;1.35;;
82985;SDS011;72786;53.546;9.910;2023-12-20T05:27:00;12.63;;;1.67;;
82985;SDS011;72786;53.546;9.910;2023-12-20T05:29:26;8.32;;;1.48;;
82985;SDS011;72786;53.546;9.910;2023-12-20T05:31:53;9.23;;;1.48;;
82985;SDS011;72786;53.546;9.910;2023-12-20T05:34:20;11.45;;;1.60;;
82985;SDS011;72786;53.546;9.910;2023-12-20T05:36:47;10.25;;;1.85;;
82985;SDS011;72786;53.546;9.910;2023-12-20T05:39:13;17.48;;;1.80;;
82985;SDS011;72786;53.546;9.910;2023-12-20T05:41:40;12.82;;;1.85;;
82985;SDS011;72786;53.546;9.910;2023-12-20T05:44:06;13.48;;;1.90;;
82985;SDS011;72786;53.546;9.910;2023-12-20T05:46:33;8.48;;;1.60;;
82985;SDS011;72786;53.546;9.910;2023-12-20T05:48:59;10.02;;;1.67;;
82985;SDS011;72786;53.546;9.910;2023-12-20T05:51:26;7.93;;;1.50;;
82985;SDS011;72786;53.546;9.910;2023-12-20T05:53:52;10.38;;;1.48;;
82985;SDS011;72786;53.546;9.910;2023-12-20T05:56:19;10.68;;;1.50;;
82985;SDS011;72786;53.546;9.910;2023-12-20T05:58:45;10.40;;;1.38;;
82985;SDS011;72786;53.546;9.910;2023-12-20T06:01:12;10.70;;;1.90;;
82985;SDS011;72786;53.546;9.910;2023-12-20T06:03:41;16.75;;;1.63;;
82985;SDS011;72786;53.546;9.910;2023-12-20T06:06:08;10.18;;;1.42;;
82985;SDS011;72786;53.546;9.910;2023-12-20T06:08:42;9.27;;;1.45;;
82985;SDS011;72786;53.546;9.910;2023-12-20T06:11:09;11.48;;;1.90;;
82985;SDS011;72786;53.546;9.910;2023-12-20T06:13:36;12.30;;;1.42;;
82985;SDS011;72786;53.546;9.910;2023-12-20T06:16:03;14.02;;;1.42;;
82985;SDS011;72786;53.546;9.910;2023-12-20T06:18:31;14.05;;;1.58;;
82985;SDS011;72786;53.546;9.910;2023-12-20T06:20:58;10.55;;;1.55;;
82985;SDS011;72786;53.546;9.910;2023-12-20T06:23:24;12.60;;;1.80;;
82985;SDS011;72786;53.546;9.910;2023-12-20T06:25:50;14.55;;;2.20;;
82985;SDS011;72786;53.546;9.910;2023-12-20T06:28:17;15.90;;;1.92;;
82985;SDS011;72786;53.546;9.910;2023-12-20T06:30:43;8.15;;;1.13;;
82985;SDS011;72786;53.546;9.910;2023-12-20T06:33:10;14.70;;;2.63;;
82985;SDS011;72786;53.546;9.910;2023-12-20T06:35:37;13.52;;;1.75;;
82985;SDS011;72786;53.546;9.910;2023-12-20T06:38:04;9.80;;;2.00;;
82985;SDS011;72786;53.546;9.910;2023-12-20T06:40:30;12.15;;;1.80;;
82985;SDS011;72786;53.546;9.910;2023-12-20T06:42:57;10.38;;;1.70;;
82985;SDS011;72786;53.546;9.910;2023-12-20T06:45:37;6.57;;;1.30;;
82985;SDS011;72786;53.546;9.910;2023-12-20T06:48:04;9.05;;;1.30;;
82985;SDS011;72786;53.546;9.910;2023-12-20T06:50:31;11.10;;;1.85;;
82985;SDS011;72786;53.546;9.910;2023-12-20T06:52:57;7.90;;;1.67;;
82985;SDS011;72786;53.546;9.910;2023-12-20T06:55:24;6.72;;;1.40;;
82985;SDS011;72786;53.546;9.910;2023-12-20T06:57:50;9.45;;;0.90;;
82985;SDS011;72786;53.546;9.910;2023-12-20T07:00:17;9.73;;;1.73;;
82985;SDS011;72786;53.546;9.910;2023-12-20T07:02:46;11.00;;;1.48;;
82985;SDS011;72786;53.546;9.910;2023-12-20T07:05:15;9.63;;;1.80;;
82985;SDS011;72786;53.546;9.910;2023-12-20T07:07:43;7.97;;;1.60;;
82985;SDS011;72786;53.546;9.910;2023-12-20T07:10:10;13.75;;;1.80;;
82985;SDS011;72786;53.546;9.910;2023-12-20T07:12:36;9.70;;;1.92;;
82985;SDS011;72786;53.546;9.910;2023-12-20T07:15:03;12.25;;;1.73;;
82985;SDS011;72786;53.546;9.910;2023-12-20T07:17:32;12.27;;;1.27;;
82985;SDS011;72786;53.546;9.910;2023-12-20T07:19:59;14.50;;;2.28;;
82985;SDS011;72786;53.546;9.910;2023-12-20T07:22:30;12.30;;;1.75;;
82985;SDS011;72786;53.546;9.910;2023-12-20T07:24:59;11.07;;;1.80;;
82985;SDS011;72786;53.546;9.910;2023-12-20T07:27:26;14.07;;;1.55;;
82985;SDS011;72786;53.546;9.910;2023-12-20T07:29:53;13.25;;;1.70;;
82985;SDS011;72786;53.546;9.910;2023-12-20T07:32:19;8.02;;;1.60;;
82985;SDS011;72786;53.546;9.910;2023-12-20T07:34:46;12.75;;;1.63;;
82985;SDS011;72786;53.546;9.910;2023-12-20T07:37:13;9.25;;;1.77;;
82985;SDS011;72786;53.546;9.910;2023-12-20T07:39:40;12.18;;;1.70;;
82985;SDS011;72786;53.546;9.910;2023-12-20T07:42:07;13.43;;;1.80;;
82985;SDS011;72786;53.546;9.910;2023-12-20T07:44:34;13.40;;;1.67;;
82985;SDS011;72786;53.546;9.910;2023-12-20T07:47:02;16.58;;;1.90;;
82985;SDS011;72786;53.546;9.910;2023-12-20T07:49:28;15.93;;;2.25;;
82985;SDS011;72786;53.546;9.910;2023-12-20T07:51:55;10.57;;;1.70;;
82985;SDS011;72786;53.546;9.910;2023-12-20T07:54:21;15.05;;;1.63;;
82985;SDS011;72786;53.546;9.910;2023-12-20T07:56:48;15.50;;;1.83;;
82985;SDS011;72786;53.546;9.910;2023-12-20T07:59:15;9.88;;;1.88;;
82985;SDS011;72786;53.546;9.910;2023-12-20T08:01:56;12.38;;;2.45;;
82985;SDS011;72786;53.546;9.910;2023-12-20T08:04:23;14.90;;;2.20;;
82985;SDS011;72786;53.546;9.910;2023-12-20T08:06:50;10.07;;;2.22;;
82985;SDS011;72786;53.546;9.910;2023-12-20T08:09:17;9.75;;;2.00;;
82985;SDS011;72786;53.546;9.910;2023-12-20T08:11:45;13.77;;;2.08;;
82985;SDS011;72786;53.546;9.910;2023-12-20T08:14:14;9.13;;;1.98;;
82985;SDS011;72786;53.546;9.910;2023-12-20T08:16:43;14.13;;;2.00;;
82985;SDS011;72786;53.546;9.910;2023-12-20T08:19:09;15.40;;;2.30;;
82985;SDS011;72786;53.546;9.910;2023-12-20T08:21:36;12.45;;;2.72;;
82985;SDS011;72786;53.546;9.910;2023-12-20T08:24:04;13.27;;;2.97;;
82985;SDS011;72786;53.546;9.910;2023-12-20T08:26:32;13.45;;;2.25;;
82985;SDS011;72786;53.546;9.910;2023-12-20T08:28:59;16.15;;;3.15;;
82985;SDS011;72786;53.546;9.910;2023-12-20T08:31:27;18.38;;;3.30;;
82985;SDS011;72786;53.546;9.910;2023-12-20T08:33:55;9.38;;;1.85;;
82985;SDS011;72786;53.546;9.910;2023-12-20T08:36:21;13.52;;;2.20;;
82985;SDS011;72786;53.546;9.910;2023-12-20T08:38:49;14.38;;;2.05;;
82985;SDS011;72786;53.546;9.910;2023-12-20T08:41:16;13.15;;;2.05;;
82985;SDS011;72786;53.546;9.910;2023-12-20T08:43:43;14.43;;;2.13;;
82985;SDS011;72786;53.546;9.910;2023-12-20T08:46:10;11.85;;;2.30;;
82985;SDS011;72786;53.546;9.910;2023-12-20T08:48:38;11.95;;;2.63;;
82985;SDS011;72786;53.546;9.910;2023-12-20T08:51:05;13.75;;;2.53;;
82985;SDS011;72786;53.546;9.910;2023-12-20T08:53:34;16.98;;;2.83;;
82985;SDS011;72786;53.546;9.910;2023-12-20T08:56:01;11.73;;;2.05;;
82985;SDS011;72786;53.546;9.910;2023-12-20T08:58:28;8.85;;;2.20;;
82985;SDS011;72786;53.546;9.910;2023-12-20T09:00:54;11.63;;;1.70;;
82985;SDS011;72786;53.546;9.910;2023-12-20T09:03:21;10.35;;;1.52;;
82985;SDS011;72786;53.546;9.910;2023-12-20T09:05:47;7.50;;;1.58;;
82985;SDS011;72786;53.546;9.910;2023-12-20T09:08:14;6.43;;;1.25;;
82985;SDS011;72786;53.546;9.910;2023-12-20T09:10:40;12.32;;;1.20;;
82985;SDS011;72786;53.546;9.910;2023-12-20T09:13:07;11.48;;;1.50;;
82985;SDS011;72786;53.546;9.910;2023-12-20T09:15:33;9.75;;;1.42;;
82985;SDS011;72786;53.546;9.910;2023-12-20T09:18:02;10.75;;;1.88;;
82985;SDS011;72786;53.546;9.910;2023-12-20T09:20:30;10.38;;;1.40;;
82985;SDS011;72786;53.546;9.910;2023-12-20T09:22:56;9.98;;;1.35;;
82985;SDS011;72786;53.546;9.910;2023-12-20T09:25:23;9.68;;;1.95;;
82985;SDS011;72786;53.546;9.910;2023-12-20T09:27:50;6.47;;;0.75;;
82985;SDS011;72786;53.546;9.910;2023-12-20T09:30:17;7.75;;;1.00;;
82985;SDS011;72786;53.546;9.910;2023-12-20T09:32:53;4.78;;;1.00;;
82985;SDS011;72786;53.546;9.910;2023-12-20T09:35:19;1.85;;;0.30;;
82985;SDS011;72786;53.546;9.910;2023-12-20T09:37:46;5.43;;;0.70;;
82985;SDS011;72786;53.546;9.910;2023-12-20T09:40:13;7.43;;;0.60;;
82985;SDS011;72786;53.546;9.910;2023-12-20T09:42:47;5.32;;;0.68;;
82985;SDS011;72786;53.546;9.910;2023-12-20T09:45:20;4.10;;;0.52;;
82985;SDS011;72786;53.546;9.910;2023-12-20T09:47:52;1.75;;;0.40;;
82985;SDS011;72786;53.546;9.910;2023-12-20T09:50:20;2.08;;;0.10;;
82985;SDS011;72786;53.546;9.910;2023-12-20T09:52:49;4.22;;;0.20;;
82985;SDS011;72786;53.546;9.910;2023-12-20T09:55:17;1.23;;;0.45;;
82985;SDS011;72786;53.546;9.910;2023-12-20T09:57:45;1.63;;;0.10;;
82985;SDS011;72786;53.546;9.910;2023-12-20T10:00:13;3.30;;;0.30;;
82985;SDS011;72786;53.546;9.910;2023-12-20T10:02:42;2.38;;;0.30;;
82985;SDS011;72786;53.546;9.910;2023-12-20T10:05:17;0.98;;;0.20;;
82985;SDS011;72786;53.546;9.910;2023-12-20T10:07:47;3.53;;;0.30;;
82985;SDS011;72786;53.546;9.910;2023-12-20T10:10:14;0.80;;;0.13;;
82985;SDS011;72786;53.546;9.910;2023-12-20T10:12:42;0.98;;;0.05;;
82985;SDS011;72786;53.546;9.910;2023-12-20T10:15:28;0.25;;;0.03;;
82985;SDS011;72786;53.546;9.910;2023-12-20T10:17:55;2.97;;;0.20;;
82985;SDS011;72786;53.546;9.910;2023-12-20T10:20:27;1.10;;;0.17;;
82985;SDS011;72786;53.546;9.910;2023-12-20T10:22:57;3.33;;;0.22;;
82985;SDS011;72786;53.546;9.910;2023-12-20T10:25:25;1.40;;;0.40;;
82985;SDS011;72786;53.546;9.910;2023-12-20T10:30:41;3.72;;;0.30;;
82985;SDS011;72786;53.546;9.910;2023-12-20T10:33:09;1.85;;;0.40;;
82985;SDS011;72786;53.546;9.910;2023-12-20T10:35:37;3.35;;;0.57;;
82985;SDS011;72786;53.546;9.910;2023-12-20T10:38:06;4.35;;;0.47;;
82985;SDS011;72786;53.546;9.910;2023-12-20T10:40:36;4.43;;;0.40;;
82985;SDS011;72786;53.546;9.910;2023-12-20T10:43:04;1.85;;;0.40;;
82985;SDS011;72786;53.546;9.910;2023-12-20T10:45:31;6.47;;;0.40;;
82985;SDS011;72786;53.546;9.910;2023-12-20T10:47:58;2.78;;;0.73;;
82985;SDS011;72786;53.546;9.910;2023-12-20T10:50:27;7.05;;;0.60;;
82985;SDS011;72786;53.546;9.910;2023-12-20T10:52:55;5.03;;;0.50;;
82985;SDS011;72786;53.546;9.910;2023-12-20T10:55:22;7.68;;;0.63;;
82985;SDS011;72786;53.546;9.910;2023-12-20T10:58:00;1.73;;;0.20;;
82985;SDS011;72786;53.546;9.910;2023-12-20T11:00:29;4.75;;;0.40;;
82985;SDS011;72786;53.546;9.910;2023-12-20T11:03:00;3.70;;;0.30;;
82985;SDS011;72786;53.546;9.910;2023-12-20T11:05:30;3.47;;;0.30;;
82985;SDS011;72786;53.546;9.910;2023-12-20T11:08:01;5.22;;;0.77;;
82985;SDS011;72786;53.546;9.910;2023-12-20T11:10:50;6.18;;;0.70;;
82985;SDS011;72786;53.546;9.910;2023-12-20T11:13:27;3.17;;;0.60;;
82985;SDS011;72786;53.546;9.910;2023-12-20T11:15:59;5.22;;;0.90;;
82985;SDS011;72786;53.546;9.910;2023-12-20T11:18:28;2.25;;;0.50;;
82985;SDS011;72786;53.546;9.910;2023-12-20T11:21:01;6.60;;;0.95;;
82985;SDS011;72786;53.546;9.910;2023-12-20T11:23:30;5.40;;;0.50;;
82985;SDS011;72786;53.546;9.910;2023-12-20T11:26:00;10.95;;;1.42;;
82985;SDS011;72786;53.546;9.910;2023-12-20T11:28:28;3.85;;;0.57;;
82985;SDS011;72786;53.546;9.910;2023-12-20T11:30:57;7.22;;;1.27;;
82985;SDS011;72786;53.546;9.910;2023-12-20T11:33:30;9.98;;;0.80;;
82985;SDS011;72786;53.546;9.910;2023-12-20T11:36:01;6.20;;;1.48;;
82985;SDS011;72786;53.546;9.910;2023-12-20T11:38:38;10.60;;;3.47;;
82985;SDS011;72786;53.546;9.910;2023-12-20T11:41:05;6.97;;;0.77;;
82985;SDS011;72786;53.546;9.910;2023-12-20T11:43:36;8.73;;;1.15;;
82985;SDS011;72786;53.546;9.910;2023-12-20T11:46:07;4.18;;;0.95;;
82985;SDS011;72786;53.546;9.910;2023-12-20T11:48:37;3.50;;;0.60;;
82985;SDS011;72786;53.546;9.910;2023-12-20T11:51:11;7.97;;;1.17;;
82985;SDS011;72786;53.546;9.910;2023-12-20T11:53:39;8.57;;;1.00;;
82985;SDS011;72786;53.546;9.910;2023-12-20T11:56:06;9.80;;;1.08;;
82985;SDS011;72786;53.546;9.910;2023-12-20T11:58:33;4.53;;;0.70;;
82985;SDS011;72786;53.546;9.910;2023-12-20T12:01:01;11.02;;;1.02;;
82985;SDS011;72786;53.546;9.910;2023-12-20T12:03:33;4.85;;;0.82;;
82985;SDS011;72786;53.546;9.910;2023-12-20T12:06:00;9.38;;;1.13;;
82985;SDS011;72786;53.546;9.910;2023-12-20T12:08:27;19.58;;;2.22;;
82985;SDS011;72786;53.546;9.910;2023-12-20T12:10:53;8.63;;;1.20;;
82985;SDS011;72786;53.546;9.910;2023-12-20T12:13:20;13.25;;;1.45;;
82985;SDS011;72786;53.546;9.910;2023-12-20T12:15:47;9.27;;;0.98;;
82985;SDS011;72786;53.546;9.910;2023-12-20T12:18:17;11.63;;;1.13;;
82985;SDS011;72786;53.546;9.910;2023-12-20T12:20:44;10.32;;;1.77;;
82985;SDS011;72786;53.546;9.910;2023-12-20T12:23:12;9.77;;;1.30;;
82985;SDS011;72786;53.546;9.910;2023-12-20T12:25:38;10.00;;;1.20;;
82985;SDS011;72786;53.546;9.910;2023-12-20T12:28:08;6.15;;;1.20;;
82985;SDS011;72786;53.546;9.910;2023-12-20T12:30:35;8.57;;;1.20;;
82985;SDS011;72786;53.546;9.910;2023-12-20T12:33:11;7.90;;;1.00;;
82985;SDS011;72786;53.546;9.910;2023-12-20T12:35:38;8.75;;;1.23;;
82985;SDS011;72786;53.546;9.910;2023-12-20T12:38:06;8.57;;;1.00;;
82985;SDS011;72786;53.546;9.910;2023-12-20T12:40:34;5.38;;;1.10;;
82985;SDS011;72786;53.546;9.910;2023-12-20T12:43:01;9.55;;;1.42;;
82985;SDS011;72786;53.546;9.910;2023-12-20T12:45:28;12.15;;;1.23;;
82985;SDS011;72786;53.546;9.910;2023-12-20T12:47:54;7.47;;;1.23;;
82985;SDS011;72786;53.546;9.910;2023-12-20T12:50:21;9.98;;;1.40;;
82985;SDS011;72786;53.546;9.910;2023-12-20T12:52:48;10.30;;;0.90;;
82985;SDS011;72786;53.546;9.910;2023-12-20T12:55:14;7.28;;;0.90;;
82985;SDS011;72786;53.546;9.910;2023-12-20T12:57:41;7.80;;;1.52;;
82985;SDS011;72786;53.546;9.910;2023-12-20T13:00:07;14.70;;;1.35;;
82985;SDS011;72786;53.546;9.910;2023-12-20T13:02:35;8.93;;;1.63;;
82985;SDS011;72786;53.546;9.910;2023-12-20T13:05:04;9.95;;;1.13;;
82985;SDS011;72786;53.546;9.910;2023-12-20T13:07:31;16.33;;;2.15;;
82985;SDS011;72786;53.546;9.910;2023-12-20T13:09:59;9.32;;;1.88;;
82985;SDS011;72786;53.546;9.910;2023-12-20T13:12:26;14.93;;;1.70;;
82985;SDS011;72786;53.546;9.910;2023-12-20T13:14:52;10.27;;;2.45;;
82985;SDS011;72786;53.546;9.910;2023-12-20T13:17:19;6.68;;;1.30;;
82985;SDS011;72786;53.546;9.910;2023-12-20T13:19:46;7.55;;;1.50;;
82985;SDS011;72786;53.546;9.910;2023-12-20T13:22:13;12.27;;;1.70;;
82985;SDS011;72786;53.546;9.910;2023-12-20T13:24:39;14.55;;;1.35;;
82985;SDS011;72786;53.546;9.910;2023-12-20T13:27:06;13.18;;;1.30;;
82985;SDS011;72786;53.546;9.910;2023-12-20T13:29:33;19.58;;;3.00;;
82985;SDS011;72786;53.546;9.910;2023-12-20T13:32:01;12.70;;;1.40;;
82985;SDS011;72786;53.546;9.910;2023-12-20T13:34:30;13.95;;;1.60;;
82985;SDS011;72786;53.546;9.910;2023-12-20T13:36:57;13.73;;;1.95;;
82985;SDS011;72786;53.546;9.910;2023-12-20T13:39:24;9.15;;;1.48;;
82985;SDS011;72786;53.546;9.910;2023-12-20T13:41:51;11.15;;;1.73;;
82985;SDS011;72786;53.546;9.910;2023-12-20T13:44:17;14.52;;;1.92;;
82985;SDS011;72786;53.546;9.910;2023-12-20T13:46:43;14.13;;;1.83;;
82985;SDS011;72786;53.546;9.910;2023-12-20T13:49:11;9.93;;;1.50;;
82985;SDS011;72786;53.546;9.910;2023-12-20T13:51:38;16.27;;;2.28;;
82985;SDS011;72786;53.546;9.910;2023-12-20T13:54:05;16.60;;;1.83;;
82985;SDS011;72786;53.546;9.910;2023-12-20T13:56:31;15.45;;;1.88;;
82985;SDS011;72786;53.546;9.910;2023-12-20T13:59:09;12.70;;;2.33;;
82985;SDS011;72786;53.546;9.910;2023-12-20T14:01:35;15.57;;;2.45;;
82985;SDS011;72786;53.546;9.910;2023-12-20T14:04:02;16.50;;;2.90;;
82985;SDS011;72786;53.546;9.910;2023-12-20T14:06:28;15.82;;;1.98;;
82985;SDS011;72786;53.546;9.910;2023-12-20T14:08:55;12.68;;;2.08;;
82985;SDS011;72786;53.546;9.910;2023-12-20T14:11:22;18.45;;;2.60;;
82985;SDS011;72786;53.546;9.910;2023-12-20T14:13:50;14.65;;;2.20;;
82985;SDS011;72786;53.546;9.910;2023-12-20T14:16:17;16.27;;;2.70;;
82985;SDS011;72786;53.546;9.910;2023-12-20T14:18:43;15.32;;;2.20;;
82985;SDS011;72786;53.546;9.910;2023-12-20T14:21:10;13.18;;;2.03;;
82985;SDS011;72786;53.546;9.910;2023-12-20T14:23:36;16.98;;;2.70;;
82985;SDS011;72786;53.546;9.910;2023-12-20T14:26:03;9.20;;;2.50;;
82985;SDS011;72786;53.546;9.910;2023-12-20T14:28:30;13.50;;;2.30;;
82985;SDS011;72786;53.546;9.910;2023-12-20T14:30:56;18.25;;;3.42;;
82985;SDS011;72786;53.546;9.910;2023-12-20T14:33:23;11.95;;;2.65;;
82985;SDS011;72786;53.546;9.910;2023-12-20T14:35:50;13.07;;;3.15;;
82985;SDS011;72786;53.546;9.910;2023-12-20T14:38:16;13.30;;;2.10;;
82985;SDS011;72786;53.546;9.910;2023-12-20T14:40:43;14.57;;;2.20;;
82985;SDS011;72786;53.546;9.910;2023-12-20T14:43:09;10.98;;;2.25;;
82985;SDS011;72786;53.546;9.910;2023-12-20T14:45:36;13.40;;;2.03;;